Time;durP1;ratioP1;P1;durP2;ratioP2;P2;SDS_P1;SDS_P2;PMS_P1;PMS_P2;Temp;Humidity;BMP_temperature;BMP_pressure;BME280_temperature;BME280_humidity;BME280_pressure;Samples;Min_cycle;Max_cycle;Signal;HPM_P1;HPM_P2
2022/01/08 01:51:27;;;;;;;16.42;5.07;;;;;;;;;;6204821;23;20032;-91
2022/01/08 01:53:53;;;;;;;20.40;5.03;;;;;;;;;;6212868;23;20366;-91
2022/01/08 01:56:18;;;;;;;15.07;4.32;;;;;;;;;;6186360;23;20000;-90
2022/01/08 02:01:47;;;;;;;12.30;5.07;;;;;;;;;;6212576;23;20011;-90
2022/01/08 02:04:12;;;;;;;13.10;3.50;;;;;;;;;;6185756;23;20329;-90
2022/01/08 02:06:37;;;;;;;10.25;3.35;;;;;;;;;;6212958;23;20096;-90
2022/01/08 02:09:02;;;;;;;14.27;3.50;;;;;;;;;;6214140;23;20001;-90
2022/01/08 02:11:27;;;;;;;15.20;4.20;;;;;;;;;;6187352;23;20011;-90
2022/01/08 02:14:00;;;;;;;13.38;2.83;;;;;;;;;;6187710;23;20012;-90
2022/01/08 02:16:27;;;;;;;12.55;3.38;;;;;;;;;;6214581;23;20000;-89
2022/01/08 02:18:52;;;;;;;13.63;2.85;;;;;;;;;;6217460;23;20004;-90
2022/01/08 02:21:17;;;;;;;18.02;4.28;;;;;;;;;;6188025;23;20441;-90
2022/01/08 02:23:43;;;;;;;9.25;2.75;;;;;;;;;;6189705;23;20041;-90
2022/01/08 02:26:08;;;;;;;14.27;2.50;;;;;;;;;;6189255;23;20377;-89
2022/01/08 02:28:35;;;;;;;12.82;2.28;;;;;;;;;;6187967;23;20005;-90
2022/01/08 02:31:00;;;;;;;13.00;3.03;;;;;;;;;;6188644;23;20066;-90
2022/01/08 02:33:26;;;;;;;12.95;2.20;;;;;;;;;;6189235;23;20451;-90
2022/01/08 02:35:52;;;;;;;13.23;2.22;;;;;;;;;;6187656;23;20024;-90
2022/01/08 02:38:17;;;;;;;6.85;2.30;;;;;;;;;;6187748;23;20731;-90
2022/01/08 02:40:51;;;;;;;12.18;1.90;;;;;;;;;;6188043;23;20012;-90
2022/01/08 02:43:16;;;;;;;10.73;2.63;;;;;;;;;;6219521;23;20050;-90
2022/01/08 02:45:41;;;;;;;10.40;3.78;;;;;;;;;;6189563;23;20008;-90
2022/01/08 02:48:07;;;;;;;6.72;2.70;;;;;;;;;;6188341;23;20421;-89
2022/01/08 02:50:32;;;;;;;16.95;2.70;;;;;;;;;;6187511;23;20091;-90
2022/01/08 02:52:57;;;;;;;13.40;2.72;;;;;;;;;;6214359;23;20008;-90
2022/01/08 02:55:22;;;;;;;9.75;2.42;;;;;;;;;;6187832;23;20028;-90
2022/01/08 02:57:48;;;;;;;11.25;2.33;;;;;;;;;;6214455;23;20005;-89
2022/01/08 03:00:14;;;;;;;16.83;3.10;;;;;;;;;;6214386;23;20000;-90
2022/01/08 03:02:43;;;;;;;18.67;2.78;;;;;;;;;;6214256;23;20000;-90
2022/01/08 03:05:10;;;;;;;10.38;2.60;;;;;;;;;;6187701;23;20039;-90
2022/01/08 03:07:36;;;;;;;14.80;2.85;;;;;;;;;;6214335;23;20001;-90
2022/01/08 03:10:01;;;;;;;8.55;2.40;;;;;;;;;;6188665;23;20008;-90
2022/01/08 03:12:27;;;;;;;13.82;2.70;;;;;;;;;;6187460;23;20138;-90
2022/01/08 03:14:52;;;;;;;12.93;2.83;;;;;;;;;;6214454;23;20028;-90
2022/01/08 03:17:17;;;;;;;16.88;2.70;;;;;;;;;;6187346;23;20005;-90
2022/01/08 03:19:43;;;;;;;11.25;2.78;;;;;;;;;;6187122;23;20705;-89
2022/01/08 03:22:09;;;;;;;13.80;3.85;;;;;;;;;;6186719;23;20088;-90
2022/01/08 03:24:34;;;;;;;17.92;3.55;;;;;;;;;;6187155;23;20004;-90
2022/01/08 03:27:00;;;;;;;15.40;4.07;;;;;;;;;;6214122;23;20031;-90
2022/01/08 03:29:25;;;;;;;16.95;4.80;;;;;;;;;;6186933;23;20372;-90
2022/01/08 03:31:51;;;;;;;15.57;4.20;;;;;;;;;;6214049;23;20004;-90
2022/01/08 03:34:16;;;;;;;13.20;4.05;;;;;;;;;;6188172;23;20325;-90
2022/01/08 03:36:41;;;;;;;15.93;5.00;;;;;;;;;;6213282;23;20016;-90
2022/01/08 03:39:06;;;;;;;11.80;4.88;;;;;;;;;;6213505;23;20417;-90
2022/01/08 03:41:32;;;;;;;12.07;5.13;;;;;;;;;;6187353;23;20008;-90
2022/01/08 03:43:57;;;;;;;21.55;4.60;;;;;;;;;;6187206;23;20092;-90
2022/01/08 03:46:26;;;;;;;20.70;5.15;;;;;;;;;;6213350;23;20004;-90
2022/01/08 03:51:26;;;;;;;14.32;5.00;;;;;;;;;;6217262;23;20028;-89
2022/01/08 03:53:52;;;;;;;10.43;4.30;;;;;;;;;;6213430;23;20005;-90
2022/01/08 03:56:17;;;;;;;16.50;4.53;;;;;;;;;;6186844;23;20008;-90
2022/01/08 03:58:42;;;;;;;29.20;4.07;;;;;;;;;;6186540;23;20444;-90
2022/01/08 04:01:07;;;;;;;13.07;2.90;;;;;;;;;;6213455;23;20011;-90
2022/01/08 04:03:32;;;;;;;12.18;4.40;;;;;;;;;;6187129;23;20001;-90
2022/01/08 04:05:58;;;;;;;7.75;2.58;;;;;;;;;;6186962;23;20022;-89
2022/01/08 04:08:23;;;;;;;9.87;3.47;;;;;;;;;;6186744;23;20001;-89
2022/01/08 04:10:48;;;;;;;11.25;3.05;;;;;;;;;;6213419;23;20681;-90
2022/01/08 04:13:18;;;;;;;7.57;2.97;;;;;;;;;;6186429;23;20433;-90
2022/01/08 04:15:46;;;;;;;13.57;2.50;;;;;;;;;;6186882;23;20001;-90
2022/01/08 04:18:11;;;;;;;7.90;2.35;;;;;;;;;;6213342;23;20009;-90
2022/01/08 04:20:47;;;;;;;14.07;3.17;;;;;;;;;;6187324;23;20008;-90
2022/01/08 04:23:14;;;;;;;7.03;2.60;;;;;;;;;;6186718;23;19997;-90
2022/01/08 04:25:40;;;;;;;4.32;2.08;;;;;;;;;;6186424;23;20087;-90
2022/01/08 04:28:05;;;;;;;3.80;1.67;;;;;;;;;;6213557;23;20404;-89
2022/01/08 04:30:30;;;;;;;5.35;1.63;;;;;;;;;;6187883;23;20008;-90
2022/01/08 04:32:55;;;;;;;2.72;1.30;;;;;;;;;;6212820;23;20322;-89
2022/01/08 04:35:21;;;;;;;5.72;1.20;;;;;;;;;;6212837;23;20005;-89
2022/01/08 04:37:46;;;;;;;7.95;1.52;;;;;;;;;;6186758;23;20008;-89
2022/01/08 04:40:11;;;;;;;3.33;1.20;;;;;;;;;;6186495;23;20028;-90
2022/01/08 04:42:37;;;;;;;6.82;1.00;;;;;;;;;;6186620;23;20054;-90
2022/01/08 04:45:02;;;;;;;5.30;0.93;;;;;;;;;;6186416;23;20008;-89
2022/01/08 04:47:27;;;;;;;8.85;1.00;;;;;;;;;;6186653;23;20390;-90
2022/01/08 04:49:52;;;;;;;6.78;1.10;;;;;;;;;;6186207;23;20020;-89
2022/01/08 04:52:17;;;;;;;8.35;1.10;;;;;;;;;;6213176;23;20005;-89
2022/01/08 04:54:43;;;;;;;7.47;1.20;;;;;;;;;;6213143;23;20000;-89
2022/01/08 04:57:08;;;;;;;9.65;1.23;;;;;;;;;;6186004;23;20035;-90
2022/01/08 04:59:33;;;;;;;7.43;0.95;;;;;;;;;;6187058;23;20770;-90
2022/01/08 05:01:58;;;;;;;7.82;1.20;;;;;;;;;;6213451;23;20417;-89
2022/01/08 05:04:23;;;;;;;11.68;1.10;;;;;;;;;;6215031;23;20080;-89
2022/01/08 05:06:49;;;;;;;10.70;1.23;;;;;;;;;;6188772;23;19992;-89
2022/01/08 05:09:14;;;;;;;4.47;0.97;;;;;;;;;;6189667;23;20588;-89
2022/01/08 05:11:39;;;;;;;7.88;1.20;;;;;;;;;;6216146;23;20220;-90
2022/01/08 05:14:05;;;;;;;10.18;1.20;;;;;;;;;;6189547;23;20005;-90
2022/01/08 05:16:31;;;;;;;8.35;1.15;;;;;;;;;;6189533;23;20058;-90
2022/01/08 05:18:56;;;;;;;11.50;2.05;;;;;;;;;;6189382;23;20004;-90
2022/01/08 05:21:27;;;;;;;9.60;1.17;;;;;;;;;;6190060;23;20000;-90
2022/01/08 05:23:53;;;;;;;10.25;1.42;;;;;;;;;;6189799;23;19996;-90
2022/01/08 05:26:18;;;;;;;7.72;1.30;;;;;;;;;;6189328;23;20417;-90
2022/01/08 05:28:44;;;;;;;11.82;1.20;;;;;;;;;;6189413;23;20045;-90
2022/01/08 05:31:09;;;;;;;11.82;1.42;;;;;;;;;;6189532;23;20004;-90
2022/01/08 05:33:34;;;;;;;4.00;1.20;;;;;;;;;;6216032;23;20087;-90
2022/01/08 05:36:00;;;;;;;8.40;1.23;;;;;;;;;;6216530;23;19993;-90
2022/01/08 05:38:25;;;;;;;16.88;1.98;;;;;;;;;;6189669;23;20008;-90
2022/01/08 05:40:50;;;;;;;11.43;1.57;;;;;;;;;;6189568;23;20691;-90
2022/01/08 05:43:15;;;;;;;12.30;1.88;;;;;;;;;;6189507;23;20232;-90
2022/01/08 05:45:41;;;;;;;14.60;1.23;;;;;;;;;;6190701;23;20031;-90
2022/01/08 05:48:07;;;;;;;12.85;1.33;;;;;;;;;;6192329;23;20050;-89
2022/01/08 05:50:32;;;;;;;7.93;1.27;;;;;;;;;;6218103;23;20024;-90
2022/01/08 05:52:57;;;;;;;12.27;1.25;;;;;;;;;;6218339;23;19992;-90
2022/01/08 05:55:23;;;;;;;9.85;1.42;;;;;;;;;;6218225;23;20063;-90
2022/01/08 05:57:48;;;;;;;14.40;2.63;;;;;;;;;;6191306;23;20005;-89
2022/01/08 06:00:13;;;;;;;7.97;1.15;;;;;;;;;;6217968;23;19997;-89
2022/01/08 06:02:38;;;;;;;10.95;0.98;;;;;;;;;;6217852;23;19993;-90
2022/01/08 06:05:04;;;;;;;10.52;1.20;;;;;;;;;;6217889;23;20068;-90
2022/01/08 06:07:30;;;;;;;10.00;1.48;;;;;;;;;;6191972;23;20125;-89
2022/01/08 06:09:55;;;;;;;9.27;1.40;;;;;;;;;;6191453;23;19997;-89
2022/01/08 06:12:20;;;;;;;8.60;1.30;;;;;;;;;;6218039;23;20000;-89
2022/01/08 06:14:45;;;;;;;6.90;1.10;;;;;;;;;;6191542;23;20337;-90
2022/01/08 06:17:11;;;;;;;10.93;1.23;;;;;;;;;;6191334;23;20298;-89
2022/01/08 06:19:36;;;;;;;8.35;1.20;;;;;;;;;;6217931;23;20295;-90
2022/01/08 06:22:01;;;;;;;9.60;1.27;;;;;;;;;;6191453;23;20057;-89
2022/01/08 06:24:27;;;;;;;8.57;1.20;;;;;;;;;;6217858;23;19993;-89
2022/01/08 06:26:52;;;;;;;8.25;1.20;;;;;;;;;;6218029;23;19992;-90
2022/01/08 06:29:17;;;;;;;5.47;1.90;;;;;;;;;;6191166;23;20000;-89
2022/01/08 06:31:42;;;;;;;4.32;1.45;;;;;;;;;;6217940;23;20208;-89
2022/01/08 06:34:07;;;;;;;13.73;1.13;;;;;;;;;;6191855;23;19997;-89
2022/01/08 06:36:33;;;;;;;4.68;1.58;;;;;;;;;;6191635;23;20087;-90
2022/01/08 06:38:58;;;;;;;6.30;1.15;;;;;;;;;;6191073;23;20367;-90
2022/01/08 06:41:23;;;;;;;9.13;1.40;;;;;;;;;;6217686;23;19996;-90
2022/01/08 06:43:48;;;;;;;11.60;1.58;;;;;;;;;;6218351;23;20325;-89
2022/01/08 06:46:14;;;;;;;8.40;1.35;;;;;;;;;;6218014;23;19993;-89
2022/01/08 06:48:40;;;;;;;6.88;1.63;;;;;;;;;;6190786;23;20000;-90
2022/01/08 06:51:05;;;;;;;7.20;1.25;;;;;;;;;;6190441;23;20096;-89
2022/01/08 06:53:30;;;;;;;24.42;4.15;;;;;;;;;;6190794;23;20004;-89
2022/01/08 06:55:56;;;;;;;5.13;1.48;;;;;;;;;;6191136;23;19997;-90
2022/01/08 06:58:21;;;;;;;11.40;1.80;;;;;;;;;;6216922;23;20015;-90
2022/01/08 07:00:47;;;;;;;5.03;1.42;;;;;;;;;;6190771;23;19996;-90
2022/01/08 07:03:12;;;;;;;10.25;1.75;;;;;;;;;;6218198;23;20055;-89
2022/01/08 07:05:38;;;;;;;13.45;2.45;;;;;;;;;;6190793;23;19997;-90
2022/01/08 07:08:03;;;;;;;11.70;1.60;;;;;;;;;;6190856;23;19997;-90
2022/01/08 07:10:28;;;;;;;10.45;1.17;;;;;;;;;;6190833;23;20079;-90
2022/01/08 07:12:54;;;;;;;9.70;2.05;;;;;;;;;;6190960;23;20078;-90
2022/01/08 07:15:19;;;;;;;9.00;1.80;;;;;;;;;;6190811;23;20008;-89
2022/01/08 07:17:44;;;;;;;9.43;1.83;;;;;;;;;;6217350;23;20004;-90
2022/01/08 07:20:10;;;;;;;12.07;1.52;;;;;;;;;;6190917;23;19996;-90
2022/01/08 07:22:35;;;;;;;8.25;1.88;;;;;;;;;;6190813;23;20408;-90
2022/01/08 07:25:03;;;;;;;7.18;1.38;;;;;;;;;;6190650;23;20091;-90
2022/01/08 07:27:30;;;;;;;9.88;2.05;;;;;;;;;;6217053;23;19992;-90
2022/01/08 07:29:55;;;;;;;8.05;1.73;;;;;;;;;;6217209;23;19993;-90
2022/01/08 07:32:20;;;;;;;8.45;1.83;;;;;;;;;;6190853;23;20051;-90
2022/01/08 07:34:45;;;;;;;17.08;3.22;;;;;;;;;;6190904;23;19988;-90
2022/01/08 07:37:11;;;;;;;13.15;2.40;;;;;;;;;;6190391;23;20019;-90
2022/01/08 07:39:36;;;;;;;14.37;2.70;;;;;;;;;;6190654;23;20367;-90
2022/01/08 07:42:01;;;;;;;18.02;4.10;;;;;;;;;;6217321;23;20224;-90
2022/01/08 07:44:26;;;;;;;19.67;3.10;;;;;;;;;;6190353;23;20001;-90
2022/01/08 07:46:51;;;;;;;19.70;2.60;;;;;;;;;;6190449;23;19996;-90
2022/01/08 07:49:17;;;;;;;11.35;2.10;;;;;;;;;;6190194;23;20024;-90
2022/01/08 07:51:42;;;;;;;13.57;2.05;;;;;;;;;;6216655;23;20346;-90
2022/01/08 07:54:07;;;;;;;20.45;3.53;;;;;;;;;;6190510;23;20001;-90
2022/01/08 07:56:34;;;;;;;17.13;2.33;;;;;;;;;;6217047;23;20024;-90
2022/01/08 07:59:00;;;;;;;14.45;2.10;;;;;;;;;;6190522;23;20255;-90
2022/01/08 08:01:25;;;;;;;12.77;3.15;;;;;;;;;;6191643;23;19997;-90
2022/01/08 08:03:50;;;;;;;13.43;3.13;;;;;;;;;;6190449;23;20012;-91
2022/01/08 08:06:15;;;;;;;14.90;2.45;;;;;;;;;;6190175;23;20001;-91
2022/01/08 08:08:41;;;;;;;13.45;2.20;;;;;;;;;;6190106;23;20420;-89
2022/01/08 08:11:06;;;;;;;12.73;1.93;;;;;;;;;;6190907;23;19992;-90
2022/01/08 08:13:31;;;;;;;17.80;2.03;;;;;;;;;;6216956;23;20534;-90
2022/01/08 08:15:56;;;;;;;15.45;2.20;;;;;;;;;;6190324;23;20007;-90
2022/01/08 08:18:21;;;;;;;9.30;2.17;;;;;;;;;;6191044;23;20455;-90
2022/01/08 08:20:47;;;;;;;12.40;1.92;;;;;;;;;;6190113;23;20043;-89
2022/01/08 08:23:12;;;;;;;18.48;2.78;;;;;;;;;;6189947;23;20029;-89
2022/01/08 08:25:37;;;;;;;13.18;1.88;;;;;;;;;;6190101;23;20474;-90
2022/01/08 08:28:04;;;;;;;14.93;3.10;;;;;;;;;;6215973;23;19997;-90
2022/01/08 08:30:29;;;;;;;17.30;2.38;;;;;;;;;;6214354;23;20004;-90
2022/01/08 08:32:54;;;;;;;11.43;2.03;;;;;;;;;;6188131;23;20732;-90
2022/01/08 08:35:19;;;;;;;12.68;2.28;;;;;;;;;;6214972;23;20031;-90
2022/01/08 08:37:45;;;;;;;13.68;2.30;;;;;;;;;;6212978;23;20437;-90
2022/01/08 08:40:11;;;;;;;11.70;1.98;;;;;;;;;;6185967;23;20079;-90
2022/01/08 08:42:36;;;;;;;12.02;2.88;;;;;;;;;;6186061;23;20005;-90
2022/01/08 08:45:03;;;;;;;15.52;2.40;;;;;;;;;;6186475;23;20072;-90
2022/01/08 08:47:28;;;;;;;23.73;4.00;;;;;;;;;;6186783;23;20333;-90
